• Join FlightAware (Why Join?)
  • Login
  • US Flag 
12:41AM EST


 

Airport Tracker/Info


-or-


 

Live Flight TrackerFlight Track Log ✈ SWA286 ✈ 25-Apr-2013 ✈ KBNA - KDEN

Flight Track Log - Related Links

Times and Time Zones

All times are in EDT time to prevent confusion due to time zone crossing. See the SWA286 flight status page for this flight to view local times or setup timezone preferences in your user account.

Time Position Orientation Groundspeed Altitude Reporting Facility
EDT Latitude Longitude Course Direction KTS MPH feet Rate Location/Type
04:46PM 36.1500 -86.6667 360° North 154 177 1,300  Level Nashville TRACON
04:47PM 36.1667 -86.6667 360° North 164 189 2,400 2,400 Climbing Nashville TRACON
04:48PM 36.2167 -86.6500 15° North 222 255 4,900 2,460 Climbing Nashville TRACON
04:49PM 36.2667 -86.6833 332° Northwest 237 273 7,400 2,220 Climbing Nashville TRACON
04:51PM 36.3053 -86.8173 287° West  Level Estimated
04:51PM 36.2628 -86.9106 287° West 288 331 12,300  Level Memphis Center
04:52PM 36.2681 -87.0261 273° West 338 389 15,400 2,760 Climbing Memphis Center
04:53PM 36.2692 -87.1469 271° West 357 411 17,900 2,640 Climbing Memphis Center
04:54PM 36.2786 -87.2728 275° West 368 423 20,700 2,400 Climbing Memphis Center
04:55PM 36.2961 -87.3881 281° West 368 423 22,700 1,380 Climbing Memphis Center
04:56PM 36.3219 -87.5133 284° West 368 423 23,500 1,260 Climbing Memphis Center
04:57PM 36.3703 -87.6275 298° West 373 429 25,300 2,040 Climbing Memphis Center
04:58PM 36.4228 -87.7419 300° West 373 429 27,600 2,280 Climbing Memphis Center
04:59PM 36.4711 -87.8539 298° West 373 429 29,900 2,100 Climbing Memphis Center
05:00PM 36.5253 -87.9708 300° West 367 422 31,800 1,920 Climbing Memphis Center
05:01PM 36.5753 -88.0806 300° West 367 422 33,800 1,980 Climbing Memphis Center
05:02PM 36.6211 -88.1828 299° West 355 409 35,800 1,620 Climbing Memphis Center
05:03PM 36.6561 -88.2903 292° West 344 396 37,100 1,080 Climbing Memphis Center
05:04PM 36.6747 -88.4011 282° West 333 383 38,000 420 Climbing Memphis Center
05:05PM 36.6931 -88.5144 281° West 333 383 38,000  Level Memphis Center
05:06PM 36.7094 -88.6306 280° West 338 389 38,000  Level Memphis Center
05:07PM 36.7297 -88.7467 282° West 338 389 38,000  Level Memphis Center
05:08PM 36.7458 -88.8628 280° West 338 389 38,000  Level Memphis Center
05:09PM 36.7636 -88.9764 281° West 338 389 38,000  Level Memphis Center
05:10PM 36.7836 -89.0903 282° West 338 389 38,000  Level Memphis Center
05:11PM 36.7994 -89.2014 280° West 333 383 38,000  Level Memphis Center
05:12PM 36.8147 -89.3047 280° West 333 383 38,000  Level Memphis Center
05:13PM 36.8325 -89.4161 281° West 333 383 38,000  Level Memphis Center
05:14PM 36.8478 -89.5247 280° West 333 383 38,000  Level Memphis Center
05:15PM 36.8631 -89.6333 280° West 333 383 38,000  Level Memphis Center
05:16PM 36.8803 -89.7447 281° West 333 383 38,000  Level Memphis Center
05:17PM 36.8956 -89.8561 280° West 333 383 38,000  Level Memphis Center
05:18PM 36.9125 -89.9703 281° West 333 383 38,000  Level Memphis Center
05:19PM 36.9275 -90.0792 280° West 333 383 38,000  Level Memphis Center
05:20PM 36.9442 -90.1908 281° West 333 383 38,000  Level Memphis Center
05:21PM 36.9589 -90.3050 279° West 333 383 38,000  Level Memphis Center
05:22PM 36.9756 -90.4139 281° West 333 383 38,000  Level Memphis Center
05:23PM 36.9903 -90.5283 279° West 333 383 38,000  Level Memphis Center
05:25PM 37.0169 -90.7044 281° West 329 379 38,000  Level Kansas City Center
05:26PM 37.0331 -90.8167 280° West 326 375 38,000  Level Kansas City Center
05:27PM 37.0475 -90.9283 279° West 326 375 38,000  Level Kansas City Center
05:28PM 37.0622 -91.0381 280° West 323 372 38,000  Level Kansas City Center
05:29PM 37.0794 -91.1581 280° West 321 369 38,000  Level Kansas City Center
05:30PM 37.0939 -91.2675 279° West 318 366 38,000  Level Kansas City Center
05:31PM 37.1075 -91.3783 279° West 319 367 38,000  Level Kansas City Center
05:32PM 37.1242 -91.4872 281° West 319 367 38,000  Level Kansas City Center
05:33PM 37.1383 -91.5986 279° West 322 371 38,000  Level Kansas City Center
05:34PM 37.1533 -91.7081 280° West 320 368 38,000  Level Kansas City Center
05:35PM 37.1703 -91.8414 279° West 320 368 38,000  Level Kansas City Center
05:36PM 37.1842 -91.9519 279° West 321 369 38,000  Level Kansas City Center
05:37PM 37.1989 -92.0619 280° West 319 367 38,000  Level Kansas City Center
05:38PM 37.2133 -92.1733 279° West 320 368 38,000  Level Kansas City Center
05:39PM 37.2272 -92.2847 279° West 322 371 38,000  Level Kansas City Center
05:40PM 37.2411 -92.3958 279° West 321 369 38,000  Level Kansas City Center
05:41PM 37.2553 -92.5069 279° West 321 369 38,000  Level Kansas City Center
05:42PM 37.2717 -92.6422 279° West 323 372 38,000  Level Kansas City Center
05:43PM 37.2864 -92.7533 279° West 323 372 38,000  Level Kansas City Center
05:44PM 37.3003 -92.8644 279° West 321 369 38,000  Level Kansas City Center
05:45PM 37.3122 -92.9764 278° West 321 369 38,000  Level Kansas City Center
05:47PM 37.3261 -93.0850 279° West 318 366 38,000  Level Kansas City Center
05:48PM 37.3389 -93.1950 278° West 317 365 38,000  Level Kansas City Center
05:49PM 37.3522 -93.3069 279° West 320 368 38,000  Level Kansas City Center
05:50PM 37.3772 -93.4139 286° West 320 368 38,000  Level Kansas City Center
05:51PM 37.4156 -93.5439 290° West 325 374 38,000  Level Kansas City Center
05:52PM 37.4442 -93.6511 289° West 326 375 38,000  Level Kansas City Center
05:53PM 37.4742 -93.7589 289° West 325 374 38,000  Level Kansas City Center
05:54PM 37.5039 -93.8664 289° West 324 373 38,000  Level Kansas City Center
05:55PM 37.5336 -93.9753 289° West 326 375 38,000  Level Kansas City Center
05:56PM 37.5647 -94.0847 290° West 329 379 38,000  Level Kansas City Center
05:57PM 37.5986 -94.2094 289° West 323 372 38,000  Level Kansas City Center
05:58PM 37.6283 -94.3186 289° West 326 375 38,000  Level Kansas City Center
05:59PM 37.6569 -94.4258 289° West 324 373 38,000  Level Kansas City Center
06:00PM 37.6886 -94.5433 289° West 327 376 38,000  Level Kansas City Center
06:01PM 37.7172 -94.6475 289° West 328 377 38,000  Level Kansas City Center
06:02PM 37.7503 -94.7692 289° West 328 377 38,000  Level Kansas City Center
06:03PM 37.7786 -94.8781 288° West 334 384 38,000  Level Kansas City Center
06:04PM 37.8119 -95.0036 289° West 336 387 38,000  Level Kansas City Center
06:05PM 37.8406 -95.1111 289° West 335 386 38,000  Level Kansas City Center
06:06PM 37.8694 -95.2239 288° West 335 386 38,000  Level Kansas City Center
06:07PM 37.8994 -95.3350 289° West 336 387 38,000  Level Kansas City Center
06:08PM 37.9281 -95.4442 288° West 332 382 38,000  Level Kansas City Center
06:09PM 37.9611 -95.5761 288° West 335 386 38,000  Level Kansas City Center
06:10PM 37.9886 -95.6833 288° West 334 384 38,000  Level Kansas City Center
06:11PM 38.0219 -95.8086 289° West 335 386 38,000  Level Kansas City Center
06:12PM 38.0489 -95.9156 288° West 334 384 38,000  Level Kansas City Center
06:13PM 38.0811 -96.0425 288° West 336 387 38,000  Level Kansas City Center
06:14PM 38.1094 -96.1575 287° West 341 392 38,000  Level Kansas City Center
06:15PM 38.1386 -96.2728 288° West 343 395 38,000  Level Kansas City Center
06:17PM 38.1678 -96.3872 288° West 342 394 38,000  Level Kansas City Center
06:18PM 38.1961 -96.5044 287° West 347 399 38,000  Level Kansas City Center
06:19PM 38.2261 -96.6225 288° West 350 403 38,000  Level Kansas City Center
06:20PM 38.2614 -96.7644 288° West 352 405 38,000  Level Kansas City Center
06:21PM 38.2906 -96.8825 288° West 351 404 38,000  Level Kansas City Center
06:22PM 38.3192 -97.0003 287° West 350 403 38,000  Level Kansas City Center
06:23PM 38.3478 -97.1178 287° West 350 403 38,000  Level Kansas City Center
06:24PM 38.3764 -97.2353 287° West 349 402 38,000  Level Kansas City Center
06:25PM 38.4106 -97.3769 287° West 350 403 38,000  Level Kansas City Center
06:26PM 38.4386 -97.4958 287° West 352 405 38,000  Level Kansas City Center
06:27PM 38.4672 -97.6158 287° West 355 409 38,000  Level Kansas City Center
06:28PM 38.4961 -97.7358 287° West 356 410 38,000  Level Kansas City Center
06:29PM 38.5242 -97.8572 286° West 358 412 38,000  Level Kansas City Center
06:30PM 38.5525 -97.9775 287° West 357 411 38,000  Level Kansas City Center
06:31PM 38.5861 -98.1217 287° West 355 409 38,000  Level Kansas City Center
06:32PM 38.6139 -98.2406 287° West 352 405 38,000  Level Kansas City Center
06:33PM 38.6417 -98.3600 287° West 351 404 38,000  Level Kansas City Center
06:34PM 38.6689 -98.4778 287° West 348 400 38,000  Level Kansas City Center
06:35PM 38.6964 -98.5978 286° West 352 405 38,000  Level Kansas City Center
06:36PM 38.7283 -98.7403 286° West 348 400 38,000  Level Kansas City Center
06:37PM 38.7553 -98.8583 286° West 347 399 38,000  Level Kansas City Center
06:38PM 38.7822 -98.9764 286° West 346 398 38,000  Level Kansas City Center
06:39PM 38.8086 -99.0944 286° West 345 397 38,000  Level Kansas City Center
06:40PM 38.8336 -99.2142 285° West 348 400 38,000  Level Kansas City Center
06:41PM 38.8478 -99.3347 279° West 345 397 38,000  Level Kansas City Center
06:42PM 38.8492 -99.4203 271° West 338 389 38,000  Level Denver Center
06:43PM 38.8514 -99.5589 271° West 345 397 38,000  Level Denver Center
06:44PM 38.8519 -99.6783 270° West 350 403 38,000  Level Denver Center
06:45PM 38.8528 -99.8161 270° West 348 400 38,000  Level Denver Center
06:46PM 38.8539 -99.9364 271° West 351 404 38,000  Level Denver Center
06:47PM 38.8533 -100.0742 270° West 347 399 38,000  Level Denver Center
06:48PM 38.8547 -100.1933 271° West 350 403 38,000  Level Denver Center
06:49PM 38.8556 -100.3314 270° West 348 400 38,000  Level Denver Center
06:50PM 38.8547 -100.4486 270° West 345 397 38,000  Level Denver Center
06:51PM 38.8550 -100.5853 270° West 344 396 38,000  Level Denver Center
06:52PM 38.8556 -100.7031 270° West 345 397 38,000  Level Denver Center
06:53PM 38.8547 -100.8433 270° West 351 404 38,000 -300 Level Denver Center
06:54PM 38.8550 -100.9639 270° West 354 407 37,400 -840 Descending Denver Center
06:55PM 38.8542 -101.1014 270° West 349 402 36,300 -1,020 Descending Denver Center
06:57PM 38.8533 -101.2414 270° West 353 406 35,200 -960 Descending Denver Center
06:58PM 38.8531 -101.3833 270° West 356 410 34,200 -600 Descending Denver Center
06:59PM 38.8514 -101.5086 269° West 366 421 34,000 -120 Descending Denver Center
07:00PM 38.8511 -101.6489 270° West 356 410 34,000  Level Denver Center
07:01PM 38.8500 -101.7722 269° West 360 414 34,000  Level Denver Center
07:02PM 38.8478 -101.9161 269° West 363 418 34,000  Level Denver Center
07:03PM 38.8458 -102.0392 269° West 361 415 34,000  Level Denver Center
07:04PM 38.8436 -102.1428 268° West 364 419 34,000  Level Denver Center
07:05PM 38.8422 -102.3067 269° West 362 417 34,000  Level Denver Center
07:06PM 38.8836 -102.4469 291° West 378 435 34,000  Level Denver Center
07:07PM 38.9261 -102.5667 295° West 383 441 34,000  Level Denver Center
07:08PM 38.9753 -102.7083 294° West 389 448 34,000  Level Denver Center
07:09PM 39.0192 -102.8331 294° West 398 458 34,000  Level Denver Center
07:10PM 39.0669 -102.9694 294° West 393 452 34,000  Level Denver Center
07:11PM 39.1078 -103.0903 294° West 387 445 34,000 -300 Level Denver Center
07:12PM 39.1558 -103.2308 294° West 386 444 33,400 -1,500 Descending Denver Center
07:13PM 39.1981 -103.3525 294° West 388 447 30,900 -2,460 Descending Denver Center
07:14PM 39.2447 -103.4908 294° West 377 434 28,400 -2,220 Descending Denver Center
07:15PM 39.2833 -103.6039 294° West 364 419 26,400 -2,040 Descending Denver Center
07:16PM 39.3228 -103.7200 294° West 368 423 24,300 -2,280 Descending Denver Center
07:17PM 39.3686 -103.8569 293° West 372 428 21,800 -1,860 Descending Denver Center
07:18PM 39.4169 -103.9783 297° West 351 404 20,500 -1,260 Descending Denver Center
07:19PM 39.4786 -104.0806 308° West 335 386 19,200 -1,560 Descending Denver Center
07:20PM 39.5381 -104.1869 306° West 364 419 17,300 -1,860 Descending Denver Center
07:21PM 39.6003 -104.2908 308° West 341 392 15,400 -1,620 Descending Denver Center
07:22PM 39.6519 -104.3822 306° West 318 366 14,000 -1,200 Descending Denver Center
07:24PM 39.7033 -104.4703 307° West 309 356 13,000 -1,260 Descending Denver Center
07:25PM 39.7547 -104.5639 306° West 298 343 11,400 -1,020 Descending Denver Center
07:26PM 39.7594 -104.6631 274° West 268 308 11,000 -540 Descending Denver Center
07:27PM 39.7631 -104.7617 273° West 253 291 10,400 -1,020 Descending Denver Center
07:28PM 39.7661 -104.8514 273° West 249 287 9,000 -1,440 Descending Denver Center
07:29PM 39.8106 -104.8875 328° Northwest 242 278 7,500 -1,080 Descending Denver Center
07:30PM 39.8411 -104.8272 57° Northeast 175 201 6,800 -780 Descending Denver Center
07:31PM 39.8411 -104.7722 90° East 152 175 6,000 -720 Descending Denver Center
07:32PM 39.8414 -104.7028 90° East 151 174 5,300 -600 Descending Denver Center
07:34PM 39.8500 -104.6667 78° East  Level FlightAware Approximate
07:41PM 39.8617 -104.6732 78° East  Level Estimated
07:42PM 39.8617 -104.6732 78° East  Level Estimated